Time;durP1;ratioP1;P1;durP2;ratioP2;P2;SDS_P1;SDS_P2;PMS_P1;PMS_P2;Temp;Humidity;BMP_temperature;BMP_pressure;BME280_temperature;BME280_humidity;BME280_pressure;Samples;Min_cycle;Max_cycle;Signal;HPM_P1;HPM_P2
2021/07/06 00:01:22;;;;;;;15.90;13.38;;;17.10;99.90;;;;;;4165049;28;20029;-74
2021/07/06 00:03:23;;;;;;;17.58;12.65;;;17.10;99.90;;;;;;4151185;28;20029;-74
2021/07/06 00:05:24;;;;;;;16.20;13.23;;;17.10;99.90;;;;;;4163350;28;20026;-74
2021/07/06 00:07:25;;;;;;;16.20;12.80;;;17.10;99.90;;;;;;4163981;28;20022;-74
2021/07/06 00:09:26;;;;;;;19.17;13.35;;;17.10;99.90;;;;;;4163973;28;20037;-75
2021/07/06 00:11:27;;;;;;;20.17;12.90;;;17.10;99.90;;;;;;4163894;28;20026;-74
2021/07/06 00:13:27;;;;;;;15.48;12.13;;;17.10;99.90;;;;;;4162532;28;20143;-75
2021/07/06 00:15:29;;;;;;;14.27;11.63;;;17.10;99.90;;;;;;4162390;28;20053;-74
2021/07/06 00:17:30;;;;;;;15.38;11.55;;;17.20;99.90;;;;;;4163981;28;20084;-74
2021/07/06 00:19:30;;;;;;;15.30;11.77;;;17.20;99.90;;;;;;4163686;28;20026;-74
2021/07/06 00:21:31;;;;;;;13.63;11.50;;;17.20;99.90;;;;;;4163895;28;20113;-74
2021/07/06 00:23:32;;;;;;;14.20;10.32;;;17.10;99.90;;;;;;4163962;28;20493;-74
2021/07/06 00:25:33;;;;;;;12.93;9.90;;;17.10;99.90;;;;;;4163261;28;20033;-75
2021/07/06 00:27:34;;;;;;;11.82;9.77;;;17.10;99.90;;;;;;4163068;28;20056;-74
2021/07/06 00:29:35;;;;;;;11.80;9.88;;;17.20;99.90;;;;;;4160616;28;20113;-75
2021/07/06 00:31:35;;;;;;;11.85;8.85;;;17.30;99.90;;;;;;4163433;28;20037;-75
2021/07/06 00:33:36;;;;;;;9.68;8.23;;;17.50;99.90;;;;;;4157648;28;20037;-75
2021/07/06 00:35:37;;;;;;;10.52;8.20;;;17.50;99.90;;;;;;4162907;28;20437;-75
2021/07/06 00:37:37;;;;;;;11.70;8.57;;;17.60;99.90;;;;;;4151715;28;20048;-75
2021/07/06 00:39:38;;;;;;;9.30;8.20;;;17.70;99.90;;;;;;4164374;28;20053;-74
2021/07/06 00:41:39;;;;;;;9.80;8.05;;;17.80;99.90;;;;;;4164794;28;20044;-75
2021/07/06 00:43:40;;;;;;;10.23;7.65;;;17.90;99.90;;;;;;4162723;28;20042;-75
2021/07/06 00:45:40;;;;;;;8.98;7.93;;;17.90;99.90;;;;;;4156244;28;20446;-74
2021/07/06 00:47:42;;;;;;;11.32;8.18;;;17.90;99.90;;;;;;4160279;28;20036;-75
2021/07/06 00:49:43;;;;;;;12.82;8.45;;;18.00;99.90;;;;;;4164402;28;20033;-75
2021/07/06 00:51:44;;;;;;;8.68;7.60;;;18.00;99.90;;;;;;4162783;28;20088;-75
2021/07/06 00:53:45;;;;;;;9.07;7.88;;;18.00;99.90;;;;;;4164540;28;20026;-74
2021/07/06 00:55:46;;;;;;;9.23;8.32;;;17.90;99.90;;;;;;4162922;28;20084;-74
2021/07/06 00:57:47;;;;;;;9.68;7.45;;;17.90;99.90;;;;;;4163673;28;20038;-74
2021/07/06 00:59:48;;;;;;;9.25;7.47;;;17.90;99.90;;;;;;4163882;28;20033;-74
2021/07/06 01:01:49;;;;;;;9.80;6.95;;;18.00;99.90;;;;;;4164041;28;20050;-74
2021/07/06 01:03:50;;;;;;;10.68;7.68;;;17.90;99.90;;;;;;4162762;28;20040;-74
2021/07/06 01:05:51;;;;;;;8.00;7.00;;;17.90;99.90;;;;;;4162923;28;20108;-74
2021/07/06 01:07:53;;;;;;;7.00;6.22;;;17.80;99.90;;;;;;4164192;28;20046;-74
2021/07/06 01:09:54;;;;;;;8.15;7.25;;;17.80;99.90;;;;;;4161293;28;20564;-74
2021/07/06 01:11:54;;;;;;;7.35;6.05;;;17.80;99.90;;;;;;4162921;28;20133;-74
2021/07/06 01:13:55;;;;;;;6.85;6.05;;;17.80;99.90;;;;;;4164185;28;20037;-74
2021/07/06 01:15:56;;;;;;;8.02;6.30;;;17.80;99.90;;;;;;4162890;28;20034;-74
2021/07/06 01:18:03;;;;;;;9.98;6.85;;;17.90;99.90;;;;;;4164013;28;20109;-74
2021/07/06 01:20:15;;;;;;;6.50;5.63;;;17.90;99.90;;;;;;4163068;28;20091;-74
2021/07/06 01:22:30;;;;;;;11.00;5.80;;;18.00;99.90;;;;;;4150368;28;20030;-74
2021/07/06 01:24:35;;;;;;;7.93;5.72;;;17.90;99.90;;;;;;4163718;28;20030;-74
2021/07/06 01:26:37;;;;;;;7.13;5.97;;;17.90;99.90;;;;;;4162408;28;20058;-74
2021/07/06 01:28:41;;;;;;;7.03;5.25;;;17.90;99.90;;;;;;4160324;28;20033;-74
2021/07/06 01:30:42;;;;;;;5.53;5.03;;;17.80;99.90;;;;;;4162846;28;20444;-74
2021/07/06 01:32:48;;;;;;;7.43;5.47;;;17.80;99.90;;;;;;4162296;28;20046;-74
2021/07/06 01:34:49;;;;;;;7.85;4.90;;;17.80;99.90;;;;;;4162439;28;20037;-74
2021/07/06 01:36:50;;;;;;;8.73;4.55;;;17.80;99.90;;;;;;4163937;28;20409;-74
2021/07/06 01:38:50;;;;;;;5.38;4.43;;;17.80;99.90;;;;;;4163693;28;20037;-75
2021/07/06 01:40:51;;;;;;;5.07;4.25;;;17.80;99.90;;;;;;4163882;28;20033;-74
2021/07/06 01:42:53;;;;;;;6.55;4.18;;;17.80;99.90;;;;;;4162294;28;20044;-75
2021/07/06 01:45:21;;;;;;;6.40;4.70;;;17.80;99.90;;;;;;4163124;28;20037;-74
2021/07/06 01:47:22;;;;;;;4.05;3.65;;;17.80;99.90;;;;;;4162473;28;20091;-75
2021/07/06 01:49:23;;;;;;;6.32;4.05;;;17.80;99.90;;;;;;4162176;28;20029;-74
2021/07/06 01:51:23;;;;;;;6.32;3.83;;;17.80;99.90;;;;;;4163427;28;20397;-74
2021/07/06 01:53:24;;;;;;;4.95;3.70;;;17.80;99.90;;;;;;4163406;28;20363;-75
2021/07/06 01:55:36;;;;;;;4.03;3.63;;;17.80;99.90;;;;;;4163421;28;20079;-74
2021/07/06 01:57:39;;;;;;;3.53;3.15;;;17.80;99.90;;;;;;4163402;28;20489;-75
2021/07/06 01:59:40;;;;;;;5.43;3.20;;;17.80;99.90;;;;;;4163328;28;20037;-75
2021/07/06 02:01:43;;;;;;;6.85;2.92;;;17.80;99.90;;;;;;4163456;28;20432;-75
2021/07/06 02:03:50;;;;;;;4.80;3.10;;;17.80;99.90;;;;;;4163137;28;20029;-74
2021/07/06 02:05:59;;;;;;;4.55;3.30;;;17.90;99.90;;;;;;4162320;28;20032;-75
2021/07/06 02:08:02;;;;;;;3.47;2.83;;;17.80;99.90;;;;;;4162088;28;20053;-75
2021/07/06 02:10:03;;;;;;;3.67;3.00;;;17.80;99.90;;;;;;4161655;28;20037;-75
2021/07/06 02:12:04;;;;;;;6.35;4.20;;;17.70;99.90;;;;;;4162124;28;20048;-74
2021/07/06 02:14:05;;;;;;;4.05;2.90;;;17.70;99.90;;;;;;4162188;28;20132;-75
2021/07/06 02:16:06;;;;;;;3.85;3.20;;;17.70;99.90;;;;;;4160927;28;20053;-75
2021/07/06 02:18:08;;;;;;;3.42;3.22;;;17.70;99.90;;;;;;4162469;28;20033;-74
2021/07/06 02:20:11;;;;;;;4.03;3.72;;;17.70;99.90;;;;;;4160809;28;20022;-74
2021/07/06 02:22:12;;;;;;;3.47;3.17;;;17.70;99.90;;;;;;4160584;28;20428;-75
2021/07/06 02:24:12;;;;;;;3.63;2.95;;;17.60;99.90;;;;;;4160807;28;20029;-74
2021/07/06 02:26:14;;;;;;;3.42;3.10;;;17.60;99.90;;;;;;4160850;28;20431;-74
2021/07/06 02:28:15;;;;;;;4.25;3.60;;;17.50;99.90;;;;;;4162088;28;20072;-74
2021/07/06 02:30:21;;;;;;;4.13;3.15;;;17.40;99.90;;;;;;4158191;28;20033;-74
2021/07/06 02:32:22;;;;;;;5.50;3.25;;;17.20;99.90;;;;;;4163088;28;20033;-74
2021/07/06 02:34:23;;;;;;;3.58;3.28;;;17.10;99.90;;;;;;4163365;28;20045;-74
2021/07/06 02:36:23;;;;;;;3.38;3.08;;;17.10;99.90;;;;;;4162075;28;20040;-74
2021/07/06 02:38:24;;;;;;;6.15;3.10;;;17.10;99.90;;;;;;4163080;28;20052;-75
2021/07/06 02:40:26;;;;;;;3.72;3.40;;;17.10;99.90;;;;;;4163386;28;20079;-74
2021/07/06 02:42:27;;;;;;;5.25;3.78;;;17.10;99.90;;;;;;4163255;28;20034;-74
2021/07/06 02:44:27;;;;;;;5.70;3.25;;;17.10;99.90;;;;;;4161726;28;20112;-74
2021/07/06 02:46:28;;;;;;;3.13;2.92;;;17.10;99.90;;;;;;4162798;28;20468;-74
2021/07/06 02:48:29;;;;;;;3.30;3.00;;;17.10;99.90;;;;;;4162048;28;20543;-75
2021/07/06 02:50:29;;;;;;;6.35;3.55;;;17.10;99.90;;;;;;4163229;28;20458;-74
2021/07/06 02:52:30;;;;;;;3.80;3.50;;;17.10;99.90;;;;;;4161358;28;20089;-75
2021/07/06 02:54:30;;;;;;;3.85;3.55;;;17.10;99.90;;;;;;4162704;28;20128;-74
2021/07/06 02:56:31;;;;;;;4.55;3.65;;;17.00;99.90;;;;;;4163276;28;20067;-75
2021/07/06 02:58:32;;;;;;;4.68;4.00;;;17.00;99.90;;;;;;4164646;28;20045;-74
2021/07/06 03:00:33;;;;;;;5.75;4.22;;;17.00;99.90;;;;;;4164628;28;20638;-74
2021/07/06 03:02:35;;;;;;;5.20;3.83;;;17.00;99.90;;;;;;4166186;28;20049;-75
2021/07/06 03:04:35;;;;;;;5.18;4.68;;;16.90;99.90;;;;;;4166321;28;20033;-75
2021/07/06 03:06:36;;;;;;;4.63;3.85;;;16.90;99.90;;;;;;4164401;28;20030;-76
2021/07/06 03:08:36;;;;;;;4.60;3.83;;;16.90;99.90;;;;;;4164727;28;20478;-75
2021/07/06 03:10:39;;;;;;;5.22;3.97;;;16.80;99.90;;;;;;4163134;28;20033;-75
2021/07/06 03:12:41;;;;;;;6.45;4.25;;;16.80;99.90;;;;;;4164699;28;20156;-75
2021/07/06 03:14:41;;;;;;;4.57;3.90;;;16.80;99.90;;;;;;4164976;28;20168;-74
2021/07/06 03:16:42;;;;;;;4.38;3.97;;;16.80;99.90;;;;;;4163693;28;20809;-75
2021/07/06 03:18:42;;;;;;;4.97;4.45;;;16.80;99.90;;;;;;4164845;28;20037;-76
2021/07/06 03:20:43;;;;;;;8.05;4.00;;;16.70;99.90;;;;;;4163608;28;20057;-75
2021/07/06 03:22:44;;;;;;;4.68;3.92;;;16.70;99.90;;;;;;4164783;28;20033;-75
2021/07/06 03:24:45;;;;;;;7.25;3.97;;;16.70;99.90;;;;;;4163289;28;20504;-75
2021/07/06 03:26:45;;;;;;;5.28;4.10;;;16.70;99.90;;;;;;4164560;28;20033;-74
2021/07/06 03:28:46;;;;;;;5.60;4.30;;;16.70;99.90;;;;;;4164367;28;20460;-75
2021/07/06 03:30:47;;;;;;;4.35;3.92;;;16.80;99.90;;;;;;4164612;28;20128;-75
2021/07/06 03:32:49;;;;;;;7.70;3.88;;;16.80;99.90;;;;;;4164504;28;20062;-75
2021/07/06 03:34:49;;;;;;;6.28;4.20;;;16.80;99.90;;;;;;4163150;28;20099;-75
2021/07/06 03:36:50;;;;;;;4.63;4.22;;;16.80;99.90;;;;;;4163580;28;20111;-75
2021/07/06 03:38:50;;;;;;;4.80;3.65;;;16.80;99.90;;;;;;4165034;28;20032;-75
2021/07/06 03:40:51;;;;;;;4.30;3.90;;;16.80;99.90;;;;;;4163996;28;20470;-75
2021/07/06 03:42:52;;;;;;;5.55;4.13;;;16.80;99.90;;;;;;4165640;28;20038;-75
2021/07/06 03:44:53;;;;;;;5.55;3.55;;;16.90;99.90;;;;;;4164077;28;20492;-74
2021/07/06 03:46:54;;;;;;;4.47;3.97;;;17.00;99.90;;;;;;4165540;28;20041;-75
2021/07/06 03:48:55;;;;;;;4.22;3.83;;;17.00;99.90;;;;;;4165421;28;20036;-75
2021/07/06 03:50:56;;;;;;;4.78;3.72;;;17.10;99.90;;;;;;4165188;28;20401;-75
2021/07/06 03:52:59;;;;;;;4.05;3.70;;;17.10;99.90;;;;;;4163853;28;20105;-75
2021/07/06 03:55:00;;;;;;;4.10;3.67;;;17.10;99.90;;;;;;4165043;28;20033;-75
2021/07/06 03:57:00;;;;;;;6.57;3.60;;;17.20;99.90;;;;;;4164395;28;20160;-75
2021/07/06 03:59:01;;;;;;;6.22;3.60;;;17.20;99.90;;;;;;4165040;28;20040;-75
2021/07/06 04:01:02;;;;;;;6.10;3.50;;;17.20;99.90;;;;;;4164772;28;20096;-75
2021/07/06 04:03:02;;;;;;;3.92;3.63;;;17.20;99.90;;;;;;4164642;28;20116;-75
2021/07/06 04:05:06;;;;;;;3.92;3.10;;;17.20;99.90;;;;;;4163714;28;20079;-75
2021/07/06 04:07:07;;;;;;;5.55;3.50;;;17.10;99.90;;;;;;4164307;28;20037;-75
2021/07/06 04:09:07;;;;;;;4.45;3.28;;;17.10;99.90;;;;;;4164176;28;20065;-75
2021/07/06 04:11:08;;;;;;;4.97;3.58;;;17.10;99.90;;;;;;4164855;28;20421;-75
2021/07/06 04:13:09;;;;;;;6.70;3.47;;;17.10;99.90;;;;;;4164463;28;20450;-75
2021/07/06 04:15:12;;;;;;;3.33;2.70;;;17.20;99.90;;;;;;4164493;28;20461;-75
2021/07/06 04:17:12;;;;;;;8.55;3.40;;;17.30;99.90;;;;;;4163453;28;20121;-75
2021/07/06 04:19:13;;;;;;;4.22;3.15;;;17.40;99.90;;;;;;4148652;28;20466;-74
2021/07/06 04:21:14;;;;;;;4.82;3.03;;;17.50;99.90;;;;;;4154884;28;20033;-75
2021/07/06 04:23:14;;;;;;;3.03;2.83;;;17.50;99.90;;;;;;4164581;28;20497;-75
2021/07/06 04:25:16;;;;;;;5.85;3.05;;;17.50;99.90;;;;;;4162029;28;20817;-75
2021/07/06 04:27:16;;;;;;;3.97;2.58;;;17.50;99.90;;;;;;4161717;28;20562;-75
2021/07/06 04:29:17;;;;;;;4.93;2.78;;;17.60;99.90;;;;;;4164453;28;20044;-76
2021/07/06 04:31:18;;;;;;;3.58;2.80;;;17.60;99.90;;;;;;4162880;28;20120;-75
2021/07/06 04:33:18;;;;;;;3.20;2.30;;;17.70;99.90;;;;;;4164236;28;20049;-75
2021/07/06 04:35:22;;;;;;;3.47;2.55;;;17.80;99.90;;;;;;4164410;28;20100;-76
2021/07/06 04:37:23;;;;;;;3.03;2.83;;;17.90;99.90;;;;;;4164417;28;20109;-76
2021/07/06 04:39:23;;;;;;;2.70;2.45;;;17.90;99.90;;;;;;4164594;28;20033;-76
2021/07/06 04:41:24;;;;;;;3.35;2.42;;;18.00;99.90;;;;;;4161149;28;20639;-76
2021/07/06 04:43:25;;;;;;;2.55;2.35;;;18.00;99.90;;;;;;4162928;28;20754;-76
2021/07/06 04:45:25;;;;;;;3.45;2.90;;;18.10;99.90;;;;;;4162953;28;20049;-76
2021/07/06 04:47:26;;;;;;;4.72;2.70;;;18.10;99.90;;;;;;4164433;28;20025;-75
2021/07/06 04:49:27;;;;;;;3.08;2.78;;;18.10;99.90;;;;;;4164423;28;20086;-76
2021/07/06 04:51:29;;;;;;;2.58;2.38;;;18.10;99.90;;;;;;4162953;28;20061;-76
2021/07/06 04:53:30;;;;;;;2.88;2.50;;;18.20;99.90;;;;;;4164159;28;20033;-75
2021/07/06 04:55:31;;;;;;;3.10;2.35;;;18.40;99.90;;;;;;4164669;28;20021;-75
2021/07/06 04:57:31;;;;;;;7.10;2.65;;;18.40;99.90;;;;;;4164353;28;20049;-75
2021/07/06 04:59:32;;;;;;;3.60;2.60;;;18.40;99.90;;;;;;4163846;28;20131;-75
2021/07/06 05:01:33;;;;;;;4.13;3.00;;;18.50;99.90;;;;;;4164577;28;20034;-75
2021/07/06 05:03:34;;;;;;;2.80;2.45;;;18.60;99.90;;;;;;4164311;28;20036;-76
2021/07/06 05:05:38;;;;;;;4.28;2.90;;;18.70;99.90;;;;;;4162745;28;20056;-75
2021/07/06 05:07:39;;;;;;;3.95;2.83;;;18.70;99.90;;;;;;4164487;28;20045;-75
2021/07/06 05:09:40;;;;;;;4.20;2.80;;;18.80;99.90;;;;;;4163023;28;20037;-75
2021/07/06 05:11:40;;;;;;;11.75;3.17;;;18.70;99.90;;;;;;4160034;28;20423;-75
2021/07/06 05:13:42;;;;;;;4.35;2.58;;;18.70;99.90;;;;;;4163396;28;20064;-75
2021/07/06 05:15:43;;;;;;;4.63;3.15;;;18.60;99.90;;;;;;4164540;28;20018;-75
2021/07/06 05:17:44;;;;;;;5.55;3.00;;;18.70;99.90;;;;;;4164381;28;20048;-74
2021/07/06 05:19:44;;;;;;;7.15;2.92;;;18.60;99.90;;;;;;4163427;28;20037;-74
2021/07/06 05:21:45;;;;;;;4.57;3.38;;;18.70;99.90;;;;;;4164310;28;20104;-75
2021/07/06 05:23:45;;;;;;;2.95;2.63;;;18.70;99.90;;;;;;4163956;28;20385;-75
2021/07/06 05:25:46;;;;;;;2.88;2.63;;;18.60;99.90;;;;;;4162259;28;20068;-75
2021/07/06 05:27:47;;;;;;;6.45;2.95;;;18.60;99.90;;;;;;4164037;28;20030;-75
2021/07/06 05:29:47;;;;;;;5.22;3.17;;;18.50;99.90;;;;;;4162461;28;20095;-75
2021/07/06 05:31:48;;;;;;;6.50;2.97;;;18.50;99.90;;;;;;4163711;28;20440;-76
2021/07/06 05:33:49;;;;;;;4.68;3.30;;;18.50;99.90;;;;;;4162592;28;20413;-77
2021/07/06 05:35:49;;;;;;;4.20;2.92;;;18.60;99.90;;;;;;4162329;28;20026;-74
2021/07/06 05:37:50;;;;;;;5.22;3.00;;;18.60;99.90;;;;;;4163488;28;20370;-74
2021/07/06 05:39:50;;;;;;;5.82;3.10;;;18.70;99.90;;;;;;4164104;28;20033;-75
2021/07/06 05:41:51;;;;;;;5.82;2.75;;;18.70;99.90;;;;;;4161398;28;20033;-75
2021/07/06 05:43:52;;;;;;;3.78;3.00;;;18.70;99.90;;;;;;4156126;28;20064;-76
2021/07/06 05:45:54;;;;;;;7.30;3.35;;;18.70;99.90;;;;;;4147633;28;20100;-76
2021/07/06 05:47:54;;;;;;;4.05;3.10;;;18.80;99.90;;;;;;4154889;28;20033;-76
2021/07/06 05:49:55;;;;;;;6.13;3.00;;;18.90;99.90;;;;;;4150427;28;20056;-76
2021/07/06 05:51:56;;;;;;;5.65;3.10;;;18.90;99.90;;;;;;4154413;28;20428;-76
2021/07/06 05:53:56;;;;;;;5.53;3.45;;;18.90;99.90;;;;;;4155708;28;20503;-76
2021/07/06 05:55:57;;;;;;;3.90;3.45;;;19.00;99.90;;;;;;4152123;28;20022;-76
2021/07/06 05:57:58;;;;;;;3.58;2.63;;;19.00;99.90;;;;;;4169735;28;20041;-77
2021/07/06 06:00:00;;;;;;;6.25;3.35;;;19.00;99.90;;;;;;4151203;28;20026;-76
2021/07/06 06:02:00;;;;;;;7.75;3.40;;;19.10;99.90;;;;;;4157659;28;20034;-77
2021/07/06 06:04:01;;;;;;;6.05;3.33;;;19.20;99.90;;;;;;4163687;28;20087;-75
2021/07/06 06:06:02;;;;;;;4.65;3.72;;;19.30;99.90;;;;;;4154019;28;20427;-76
2021/07/06 06:08:03;;;;;;;5.90;3.60;;;19.40;99.90;;;;;;4154055;28;20022;-76
2021/07/06 06:10:06;;;;;;;3.80;3.33;;;19.40;99.90;;;;;;4140872;28;20033;-76
2021/07/06 06:12:08;;;;;;;6.15;3.20;;;19.50;99.90;;;;;;4163874;28;20476;-76
2021/07/06 06:14:09;;;;;;;3.80;2.78;;;19.50;99.90;;;;;;4161145;28;20358;-75
2021/07/06 06:16:09;;;;;;;2.53;2.22;;;19.70;99.90;;;;;;4162255;28;20024;-75
2021/07/06 06:18:11;;;;;;;3.47;3.10;;;19.80;99.90;;;;;;4160658;28;20034;-75
2021/07/06 06:20:12;;;;;;;4.60;2.72;;;19.80;99.90;;;;;;4161843;28;20497;-75
2021/07/06 06:22:13;;;;;;;6.05;2.70;;;19.90;99.90;;;;;;4161453;28;20092;-75
2021/07/06 06:24:14;;;;;;;3.45;2.97;;;19.90;99.90;;;;;;4161146;28;20056;-75
2021/07/06 06:26:14;;;;;;;4.50;2.95;;;19.90;99.90;;;;;;4160556;28;20102;-75
2021/07/06 06:28:15;;;;;;;4.28;2.70;;;19.90;99.90;;;;;;4163600;28;20072;-75
2021/07/06 06:30:16;;;;;;;5.53;2.95;;;19.90;99.90;;;;;;4163395;28;20033;-76
2021/07/06 06:32:17;;;;;;;4.78;2.80;;;19.90;99.90;;;;;;4166560;28;20041;-75
2021/07/06 06:34:18;;;;;;;3.78;3.10;;;19.90;99.90;;;;;;4165951;28;20017;-76
2021/07/06 06:36:19;;;;;;;7.35;2.85;;;19.90;99.90;;;;;;4160113;28;20037;-76
2021/07/06 06:38:19;;;;;;;4.22;2.95;;;19.90;99.90;;;;;;4163920;28;20100;-75
2021/07/06 06:40:20;;;;;;;5.00;2.83;;;19.90;99.90;;;;;;4163614;28;20032;-76
2021/07/06 06:42:21;;;;;;;5.90;3.13;;;20.00;99.90;;;;;;4162691;28;20034;-74
2021/07/06 06:44:21;;;;;;;5.63;3.65;;;20.10;99.90;;;;;;4165141;28;20041;-75
2021/07/06 06:46:22;;;;;;;3.92;3.40;;;20.20;99.90;;;;;;4164761;28;20025;-74
2021/07/06 06:48:22;;;;;;;5.55;3.25;;;20.30;99.90;;;;;;4159321;28;20041;-76
2021/07/06 06:50:23;;;;;;;4.78;3.53;;;20.30;99.90;;;;;;4159091;28;20033;-75
2021/07/06 06:52:24;;;;;;;3.25;2.95;;;20.30;99.90;;;;;;4164395;28;20037;-76
2021/07/06 06:54:24;;;;;;;5.30;2.92;;;20.20;99.90;;;;;;4161514;28;20029;-76
2021/07/06 06:56:25;;;;;;;4.18;3.70;;;20.30;99.90;;;;;;4165409;28;20424;-76
2021/07/06 06:58:26;;;;;;;5.10;3.15;;;20.40;99.90;;;;;;4165536;28;20390;-76
2021/07/06 07:00:28;;;;;;;7.15;3.08;;;20.50;99.90;;;;;;4166150;28;20473;-75
2021/07/06 07:02:29;;;;;;;4.03;2.92;;;20.60;99.90;;;;;;4165871;28;20033;-76
2021/07/06 07:04:29;;;;;;;5.35;2.78;;;20.60;99.90;;;;;;4164441;28;20499;-76
2021/07/06 07:06:31;;;;;;;5.88;2.95;;;20.60;99.90;;;;;;4164022;28;20500;-75
2021/07/06 07:08:32;;;;;;;3.95;2.85;;;20.70;99.90;;;;;;4165623;28;20045;-76
2021/07/06 07:10:32;;;;;;;8.43;2.75;;;20.80;99.90;;;;;;4165696;28;20033;-76
2021/07/06 07:12:35;;;;;;;3.20;2.75;;;20.80;99.90;;;;;;4165676;28;20041;-76
2021/07/06 07:14:36;;;;;;;;;;;20.80;99.90;;;;;;4166227;28;20507;-76
2021/07/06 07:16:36;;;;;;;7.15;3.13;;;20.90;99.90;;;;;;4165274;28;19914;-76
2021/07/06 07:18:37;;;;;;;6.60;2.58;;;20.90;99.90;;;;;;4162149;28;20049;-76
2021/07/06 07:20:38;;;;;;;5.05;2.80;;;21.00;99.90;;;;;;4164242;28;20116;-75
2021/07/06 07:22:41;;;;;;;6.70;3.20;;;21.10;99.90;;;;;;4165767;28;20045;-76
2021/07/06 07:24:41;;;;;;;4.15;3.08;;;21.00;99.90;;;;;;4164179;28;20056;-74
2021/07/06 07:26:43;;;;;;;5.18;2.88;;;21.00;99.90;;;;;;4164156;28;20026;-76
2021/07/06 07:28:43;;;;;;;5.97;2.65;;;21.10;99.90;;;;;;4165845;28;20433;-76
2021/07/06 07:30:44;;;;;;;6.18;3.25;;;21.20;99.90;;;;;;4163866;28;20041;-74
2021/07/06 07:32:46;;;;;;;5.57;2.80;;;21.20;99.90;;;;;;4165376;28;20041;-76
2021/07/06 07:34:46;;;;;;;6.13;2.78;;;21.30;99.90;;;;;;4165098;28;20362;-75
2021/07/06 07:36:47;;;;;;;4.13;2.90;;;21.20;99.90;;;;;;4164835;28;20040;-76
2021/07/06 07:38:47;;;;;;;4.45;2.47;;;21.40;99.90;;;;;;4164904;28;20079;-76
2021/07/06 07:40:48;;;;;;;4.68;2.70;;;21.40;99.90;;;;;;4165523;28;20612;-73
2021/07/06 07:42:49;;;;;;;6.78;3.80;;;21.50;99.90;;;;;;4163051;28;20038;-76
2021/07/06 07:44:50;;;;;;;4.78;2.78;;;21.50;99.90;;;;;;4164682;28;20519;-74
2021/07/06 07:46:51;;;;;;;2.90;2.60;;;21.50;99.90;;;;;;4164367;28;20049;-76
2021/07/06 07:48:52;;;;;;;7.30;2.95;;;21.30;99.90;;;;;;4164461;28;20091;-74
2021/07/06 07:50:52;;;;;;;5.95;2.83;;;21.40;99.90;;;;;;4165235;28;20033;-76
2021/07/06 07:52:53;;;;;;;4.35;2.60;;;21.30;99.90;;;;;;4165381;28;20041;-73
2021/07/06 07:54:54;;;;;;;3.58;2.88;;;21.20;99.90;;;;;;4163737;28;20025;-76
2021/07/06 07:56:54;;;;;;;4.63;2.85;;;21.10;99.90;;;;;;4165478;28;20366;-76
2021/07/06 07:58:55;;;;;;;3.75;2.95;;;21.00;99.90;;;;;;4165333;28;20034;-76
2021/07/06 08:00:56;;;;;;;4.72;3.00;;;21.00;99.90;;;;;;4165449;28;20068;-75
2021/07/06 08:02:59;;;;;;;6.18;3.05;;;21.00;99.90;;;;;;4165053;28;20369;-76
2021/07/06 08:04:59;;;;;;;7.25;2.92;;;21.00;99.90;;;;;;4164918;28;20123;-75
2021/07/06 08:07:00;;;;;;;4.53;2.97;;;20.90;99.90;;;;;;4163463;28;20107;-74
2021/07/06 08:09:01;;;;;;;4.53;3.33;;;20.90;99.90;;;;;;4164843;28;20029;-73
2021/07/06 08:11:02;;;;;;;5.05;2.58;;;20.90;99.90;;;;;;4164301;28;20034;-75
2021/07/06 08:13:02;;;;;;;5.05;2.92;;;20.80;99.90;;;;;;4165046;28;20053;-76
2021/07/06 08:15:05;;;;;;;4.63;2.45;;;21.00;99.90;;;;;;4164752;28;20033;-76
2021/07/06 08:17:05;;;;;;;3.67;2.28;;;21.00;99.90;;;;;;4165002;28;20060;-74
2021/07/06 08:19:06;;;;;;;3.38;2.50;;;21.00;99.90;;;;;;4163780;28;20030;-74
2021/07/06 08:21:07;;;;;;;5.13;2.40;;;21.00;99.90;;;;;;4163658;28;20103;-76
2021/07/06 08:23:07;;;;;;;4.20;2.25;;;21.00;99.90;;;;;;4164153;28;20035;-76
2021/07/06 08:25:08;;;;;;;6.63;2.40;;;21.00;99.90;;;;;;4164692;28;20034;-74
2021/07/06 08:27:09;;;;;;;2.20;2.03;;;21.00;99.90;;;;;;4164386;28;20485;-73
2021/07/06 08:29:10;;;;;;;8.93;2.40;;;21.10;99.90;;;;;;4164473;28;20095;-75
2021/07/06 08:31:12;;;;;;;2.47;2.22;;;21.30;99.90;;;;;;4164477;28;20384;-75
2021/07/06 08:33:13;;;;;;;4.97;2.40;;;21.70;99.90;;;;;;4164180;28;20068;-75
2021/07/06 08:35:14;;;;;;;6.80;2.97;;;22.10;99.90;;;;;;4164374;28;20036;-76
2021/07/06 08:37:14;;;;;;;4.72;3.03;;;22.40;99.90;;;;;;4164139;28;20037;-75
2021/07/06 08:39:15;;;;;;;2.08;1.88;;;22.40;99.90;;;;;;4164408;28;20052;-76
2021/07/06 08:41:16;;;;;;;10.75;2.92;;;22.30;99.90;;;;;;4162614;28;20037;-75
2021/07/06 08:43:17;;;;;;;3.55;2.17;;;22.20;99.90;;;;;;4162499;28;20037;-75
2021/07/06 08:45:20;;;;;;;5.53;2.40;;;22.20;99.90;;;;;;4163519;28;20072;-75
2021/07/06 08:47:22;;;;;;;3.33;2.17;;;22.20;99.90;;;;;;4164126;28;20063;-75
2021/07/06 08:49:25;;;;;;;4.25;2.00;;;22.30;99.90;;;;;;4162876;28;20034;-76
2021/07/06 08:51:26;;;;;;;4.50;2.50;;;22.50;99.90;;;;;;4163363;28;20022;-75
2021/07/06 08:53:29;;;;;;;4.97;2.97;;;22.60;99.90;;;;;;4163713;28;20041;-75
2021/07/06 08:55:30;;;;;;;3.67;2.07;;;22.40;99.90;;;;;;4163494;28;20056;-77
2021/07/06 08:57:30;;;;;;;3.10;2.22;;;22.50;99.90;;;;;;4163937;28;20287;-75
2021/07/06 08:59:37;;;;;;;6.75;3.00;;;22.40;99.90;;;;;;4162792;28;20030;-74
2021/07/06 09:01:38;;;;;;;4.75;2.47;;;22.30;99.90;;;;;;4161946;28;20365;-75
2021/07/06 09:03:55;;;;;;;5.22;2.38;;;22.40;99.90;;;;;;4163753;28;20061;-74
2021/07/06 09:06:04;;;;;;;5.60;2.05;;;22.70;99.90;;;;;;4164152;28;20536;-74
2021/07/06 09:08:06;;;;;;;5.50;2.30;;;22.90;99.90;;;;;;4163780;28;20087;-75
2021/07/06 09:10:16;;;;;;;6.15;2.55;;;22.90;99.90;;;;;;4162712;28;20032;-75
2021/07/06 09:12:20;;;;;;;5.20;2.30;;;22.80;99.90;;;;;;4153361;28;20032;-76
2021/07/06 09:14:25;;;;;;;3.35;2.10;;;22.70;99.90;;;;;;4164307;28;20018;-78
2021/07/06 09:16:27;;;;;;;6.80;2.45;;;22.70;99.90;;;;;;4162410;28;20120;-75
2021/07/06 09:18:32;;;;;;;6.22;3.00;;;22.40;99.90;;;;;;4155437;28;20504;-76
2021/07/06 09:20:34;;;;;;;4.32;2.20;;;22.40;99.90;;;;;;4163437;28;20112;-76
2021/07/06 09:22:34;;;;;;;5.25;2.70;;;22.60;99.90;;;;;;4162673;28;20025;-76
2021/07/06 09:24:36;;;;;;;7.25;2.38;;;22.80;99.90;;;;;;4163974;28;20473;-76
2021/07/06 09:26:37;;;;;;;5.05;2.22;;;22.80;99.90;;;;;;4164038;28;20080;-75
2021/07/06 09:28:44;;;;;;;4.53;2.13;;;22.80;99.90;;;;;;4162374;28;20077;-76
2021/07/06 09:30:44;;;;;;;9.05;2.15;;;22.50;99.90;;;;;;4162420;28;20029;-76
2021/07/06 09:32:48;;;;;;;3.47;2.20;;;22.30;99.90;;;;;;4164035;28;20065;-76
2021/07/06 09:34:49;;;;;;;5.78;2.47;;;22.30;99.90;;;;;;4162745;28;20071;-76
2021/07/06 09:36:51;;;;;;;5.85;2.85;;;22.20;99.90;;;;;;4162282;28;20059;-76
2021/07/06 09:38:59;;;;;;;5.63;2.22;;;22.30;99.90;;;;;;4162264;28;20029;-76
2021/07/06 09:41:00;;;;;;;9.27;2.45;;;22.40;99.90;;;;;;4163222;28;20040;-76
2021/07/06 09:43:19;;;;;;;5.68;2.10;;;22.70;99.90;;;;;;4155904;28;20025;-76
2021/07/06 09:45:22;;;;;;;6.47;2.35;;;22.90;99.90;;;;;;4161009;28;20029;-77
2021/07/06 09:47:23;;;;;;;4.35;2.42;;;23.00;99.90;;;;;;4162768;28;20026;-76
2021/07/06 09:49:27;;;;;;;4.22;2.10;;;23.00;99.90;;;;;;4160914;28;20091;-76
2021/07/06 09:51:27;;;;;;;4.18;2.08;;;23.10;99.90;;;;;;4162420;28;20392;-76
2021/07/06 09:53:30;;;;;;;4.40;2.50;;;22.80;99.90;;;;;;4161651;28;20144;-76
2021/07/06 09:55:32;;;;;;;2.60;1.80;;;22.60;99.90;;;;;;4160097;28;20041;-76
2021/07/06 09:57:37;;;;;;;5.45;2.90;;;22.70;99.90;;;;;;4159787;28;20047;-76
2021/07/06 09:59:52;;;;;;;6.57;2.28;;;23.00;99.90;;;;;;4159760;28;20126;-76
2021/07/06 10:01:54;;;;;;;4.90;2.10;;;23.30;99.90;;;;;;4160027;28;20032;-75
2021/07/06 10:03:56;;;;;;;7.82;2.00;;;23.50;99.90;;;;;;4161685;28;20025;-75
2021/07/06 10:05:56;;;;;;;6.30;2.20;;;23.50;99.90;;;;;;4162172;28;20068;-75
2021/07/06 10:07:57;;;;;;;5.13;1.92;;;23.60;99.90;;;;;;4161003;28;20044;-75
2021/07/06 10:09:58;;;;;;;6.03;1.95;;;23.50;99.90;;;;;;4163716;28;20029;-76
2021/07/06 10:11:59;;;;;;;16.38;2.95;;;23.70;99.90;;;;;;4162794;28;20499;-75
2021/07/06 10:14:00;;;;;;;5.22;2.20;;;23.80;99.90;;;;;;4163382;28;20049;-77
2021/07/06 10:16:01;;;;;;;4.97;2.00;;;24.00;99.90;;;;;;4161531;28;20056;-77
2021/07/06 10:18:02;;;;;;;3.90;1.80;;;24.10;99.90;;;;;;4163335;28;20030;-76
2021/07/06 10:20:05;;;;;;;5.45;2.65;;;24.00;99.90;;;;;;4161714;28;20018;-76
2021/07/06 10:22:08;;;;;;;5.50;2.05;;;24.00;99.90;;;;;;4162289;28;20044;-76
2021/07/06 10:24:13;;;;;;;5.57;2.17;;;24.30;99.90;;;;;;4149557;28;20038;-75
2021/07/06 10:26:22;;;;;;;9.88;2.47;;;24.40;99.90;;;;;;4163484;28;20021;-76
2021/07/06 10:28:25;;;;;;;7.90;3.25;;;24.30;99.90;;;;;;4163029;28;20034;-76
2021/07/06 10:30:40;;;;;;;6.38;2.25;;;24.60;99.90;;;;;;4163374;28;20025;-76
2021/07/06 10:32:45;;;;;;;5.93;2.10;;;24.50;99.90;;;;;;4161766;28;20033;-76